createdAt,value
2019-04-13T00:02:39.462Z,0.70
2019-04-13T00:05:38.349Z,0.70
2019-04-13T00:08:26.169Z,0.70
2019-04-13T00:11:20.046Z,0.70
2019-04-13T00:14:05.512Z,0.70
2019-04-13T00:16:50.863Z,0.70
2019-04-13T00:19:36.354Z,0.70
2019-04-13T00:22:22.346Z,0.60
2019-04-13T00:25:07.809Z,0.60
2019-04-13T00:27:52.970Z,0.60
2019-04-13T00:30:38.774Z,0.60
2019-04-13T00:33:23.790Z,0.60
2019-04-13T00:36:09.175Z,0.60
2019-04-13T00:38:54.739Z,0.60
2019-04-13T00:41:39.701Z,0.60
2019-04-13T00:44:24.671Z,0.60
2019-04-13T00:47:09.582Z,0.60
2019-04-13T00:49:55.273Z,0.60
2019-04-13T00:52:40.802Z,0.60
2019-04-13T00:55:26.581Z,0.50
2019-04-13T00:58:11.760Z,0.60
2019-04-13T01:00:57.329Z,0.60
2019-04-13T01:03:43.006Z,0.60
2019-04-13T01:06:28.223Z,0.60
2019-04-13T01:09:13.646Z,0.60
2019-04-13T01:11:58.619Z,0.60
2019-04-13T01:14:43.670Z,0.60
2019-04-13T01:17:28.686Z,0.60
2019-04-13T01:20:13.814Z,0.60
2019-04-13T01:22:59.154Z,0.60
2019-04-13T01:25:45.153Z,0.60
2019-04-13T01:28:30.528Z,0.60
2019-04-13T01:31:15.690Z,0.60
2019-04-13T01:34:00.574Z,0.60
2019-04-13T01:36:45.426Z,0.70
2019-04-13T01:39:30.959Z,0.70
2019-04-13T01:42:16.661Z,0.70
2019-04-13T01:45:01.511Z,0.70
2019-04-13T01:47:46.402Z,0.70
2019-04-13T01:50:32.163Z,0.70
2019-04-13T01:53:17.533Z,0.70
2019-04-13T01:56:02.669Z,0.60
2019-04-13T01:58:48.074Z,0.60
2019-04-13T02:01:56.263Z,0.60
2019-04-13T02:05:01.392Z,0.60
2019-04-13T02:07:52.798Z,0.60
2019-04-13T02:10:40.731Z,0.50
2019-04-13T02:13:26.083Z,0.50
2019-04-13T02:16:12.054Z,0.50
2019-04-13T02:18:57.185Z,0.60
2019-04-13T02:21:42.416Z,0.60
2019-04-13T02:24:27.993Z,0.60
2019-04-13T02:27:13.242Z,0.60
2019-04-13T02:29:59.447Z,0.60
2019-04-13T02:32:44.830Z,0.60
2019-04-13T02:35:36.028Z,0.60
2019-04-13T02:38:17.303Z,0.60
2019-04-13T02:41:03.187Z,0.60
2019-04-13T02:43:48.319Z,0.60
2019-04-13T02:46:33.078Z,0.60
2019-04-13T02:49:17.882Z,0.60
2019-04-13T02:52:03.148Z,0.50
2019-04-13T02:54:49.115Z,0.50
2019-04-13T02:57:34.321Z,0.30
2019-04-13T03:00:19.860Z,0.20
2019-04-13T03:03:05.232Z,0.10
2019-04-13T03:05:50.789Z,0.10
2019-04-13T03:08:36.688Z,0.00
2019-04-13T03:11:22.166Z,0.00
2019-04-13T03:14:07.518Z,0.10
2019-04-13T03:17:03.532Z,0.00
2019-04-13T03:19:52.206Z,0.00
2019-04-13T03:22:37.812Z,0.10
2019-04-13T03:25:23.193Z,0.10
2019-04-13T03:28:08.266Z,0.20
2019-04-13T03:30:53.254Z,0.20
2019-04-13T03:33:38.872Z,0.30
2019-04-13T03:36:24.235Z,0.30
2019-04-13T03:39:09.582Z,0.40
2019-04-13T03:41:54.818Z,0.40
2019-04-13T03:44:40.014Z,0.40
2019-04-13T03:47:25.166Z,0.50
2019-04-13T03:50:10.207Z,0.50
2019-04-13T03:52:55.687Z,0.50
2019-04-13T03:55:40.830Z,0.50
2019-04-13T03:58:26.361Z,0.40
2019-04-13T04:01:11.622Z,0.40
2019-04-13T04:03:57.179Z,0.40
2019-04-13T04:06:42.463Z,0.40
2019-04-13T04:09:27.810Z,0.50
2019-04-13T04:12:13.218Z,0.50
2019-04-13T04:14:58.402Z,0.50
2019-04-13T04:17:43.962Z,0.50
2019-04-13T04:20:29.478Z,0.40
2019-04-13T04:23:15.417Z,0.40
2019-04-13T04:26:01.203Z,0.50
2019-04-13T04:28:46.429Z,0.50
2019-04-13T04:31:32.248Z,0.40
2019-04-13T04:34:18.386Z,0.40
2019-04-13T04:37:03.914Z,0.40
2019-04-13T04:39:49.481Z,0.50
2019-04-13T04:42:35.066Z,0.40
2019-04-13T04:45:21.154Z,0.40
2019-04-13T04:48:06.770Z,0.40
2019-04-13T04:50:52.033Z,0.40
2019-04-13T04:53:37.630Z,0.40
2019-04-13T04:56:22.938Z,0.50
2019-04-13T04:59:08.095Z,0.40
2019-04-13T05:01:53.686Z,0.40
2019-04-13T05:04:39.366Z,0.40
2019-04-13T05:07:24.410Z,0.40
2019-04-13T05:10:09.551Z,0.40
2019-04-13T05:12:54.971Z,0.40
2019-04-13T05:15:40.210Z,0.40
2019-04-13T05:18:25.560Z,0.40
2019-04-13T05:21:10.666Z,0.40
2019-04-13T05:23:55.722Z,0.40
2019-04-13T05:26:40.693Z,0.40
2019-04-13T05:29:25.472Z,0.40
2019-04-13T05:32:10.601Z,0.40
2019-04-13T05:34:55.282Z,0.50
2019-04-13T05:37:40.366Z,0.50
2019-04-13T05:40:25.190Z,0.50
2019-04-13T05:43:10.754Z,0.50
2019-04-13T05:45:56.242Z,0.50
2019-04-13T05:48:41.102Z,0.50
2019-04-13T05:51:26.268Z,0.50
2019-04-13T05:54:11.810Z,0.50
2019-04-13T05:56:57.028Z,0.50
2019-04-13T05:59:42.179Z,0.50
2019-04-13T06:02:27.314Z,0.50
2019-04-13T06:05:12.783Z,0.50
2019-04-13T06:07:58.255Z,0.50
2019-04-13T06:10:43.318Z,0.60
2019-04-13T06:13:28.717Z,0.60
2019-04-13T06:16:14.710Z,0.70
2019-04-13T06:19:00.287Z,0.80
2019-04-13T06:21:46.066Z,0.90
2019-04-13T06:24:32.311Z,0.90
2019-04-13T06:27:17.822Z,1.00
2019-04-13T06:30:15.954Z,1.10
2019-04-13T06:33:07.111Z,1.10
2019-04-13T06:35:52.334Z,1.20
2019-04-13T06:38:38.071Z,1.30
2019-04-13T06:41:23.175Z,1.30
2019-04-13T06:44:08.994Z,1.20
2019-04-13T06:46:53.981Z,1.20
2019-04-13T06:49:38.735Z,1.30
2019-04-13T06:52:24.453Z,1.40
2019-04-13T06:55:09.966Z,1.40
2019-04-13T06:57:55.889Z,1.40
2019-04-13T07:00:41.930Z,1.40
2019-04-13T07:03:29.786Z,1.40
2019-04-13T07:06:14.686Z,1.50
2019-04-13T07:09:18.725Z,1.50
2019-04-13T07:12:20.570Z,1.60
2019-04-13T07:15:06.054Z,1.70
2019-04-13T07:17:51.158Z,1.80
2019-04-13T07:20:36.047Z,1.90
2019-04-13T07:23:25.219Z,2.10
2019-04-13T07:26:11.140Z,2.20
2019-04-13T07:28:56.066Z,2.20
2019-04-13T07:31:41.046Z,2.20
2019-04-13T07:34:26.417Z,2.20
2019-04-13T07:37:12.351Z,2.20
2019-04-13T07:39:57.800Z,2.40
2019-04-13T07:42:42.845Z,2.30
2019-04-13T07:45:54.309Z,2.40
2019-04-13T07:48:58.896Z,2.70
2019-04-13T07:52:09.856Z,3.00
2019-04-13T07:54:55.619Z,3.50
2019-04-13T07:57:40.590Z,4.00
2019-04-13T08:00:28.010Z,4.40
2019-04-13T08:03:13.321Z,4.70
2019-04-13T08:05:58.663Z,4.80
2019-04-13T08:08:46.042Z,5.00
2019-04-13T08:11:31.343Z,5.10
2019-04-13T08:14:24.887Z,5.20
2019-04-13T08:17:23.637Z,5.00
2019-04-13T08:20:29.415Z,4.90
2019-04-13T08:23:12.849Z,4.50
2019-04-13T08:25:58.510Z,4.10
2019-04-13T08:28:43.684Z,4.00
2019-04-13T08:31:28.906Z,3.60
2019-04-13T08:34:14.061Z,3.40
2019-04-13T08:37:03.462Z,3.30
2019-04-13T08:40:01.363Z,3.30
2019-04-13T08:42:34.021Z,3.70
2019-04-13T08:45:19.965Z,3.90
2019-04-13T08:48:05.295Z,4.10
2019-04-13T08:50:50.330Z,4.20
2019-04-13T08:53:35.655Z,4.60
2019-04-13T08:56:21.588Z,5.10
2019-04-13T08:59:06.670Z,5.60
2019-04-13T09:01:52.439Z,6.20
2019-04-13T09:04:38.014Z,6.40
2019-04-13T09:07:23.375Z,6.00
2019-04-13T09:10:09.447Z,5.40
2019-04-13T09:12:57.565Z,5.00
2019-04-13T09:15:45.025Z,4.70
2019-04-13T09:18:39.987Z,4.60
2019-04-13T09:21:31.964Z,4.60
2019-04-13T09:24:19.431Z,4.60
2019-04-13T09:27:07.472Z,4.60
2019-04-13T09:29:53.774Z,4.50
2019-04-13T09:32:39.806Z,4.60
2019-04-13T09:35:27.021Z,4.40
2019-04-13T09:38:12.880Z,4.20
2019-04-13T09:41:02.978Z,3.90
2019-04-13T09:44:06.649Z,3.60
2019-04-13T09:46:53.318Z,3.50
2019-04-13T09:49:38.821Z,3.30
2019-04-13T09:52:24.500Z,3.20
2019-04-13T09:55:10.792Z,3.10
2019-04-13T09:58:00.853Z,2.90
2019-04-13T10:00:44.903Z,2.70
2019-04-13T10:03:31.102Z,2.70
2019-04-13T10:06:16.779Z,2.60
2019-04-13T10:09:08.211Z,2.50
2019-04-13T10:12:10.342Z,2.50
2019-04-13T10:15:04.517Z,2.40
2019-04-13T10:17:54.592Z,2.40
2019-04-13T10:20:42.257Z,2.30
2019-04-13T10:23:30.056Z,2.20
2019-04-13T10:26:16.027Z,2.20
2019-04-13T10:29:02.875Z,2.30
2019-04-13T10:31:48.546Z,2.50
2019-04-13T10:34:34.195Z,2.60
2019-04-13T10:37:20.419Z,2.80
2019-04-13T10:40:08.380Z,2.80
2019-04-13T10:42:54.188Z,2.70
2019-04-13T10:45:54.191Z,2.70
2019-04-13T10:48:46.152Z,2.80
2019-04-13T10:51:43.438Z,2.90
2019-04-13T10:54:28.835Z,3.50
2019-04-13T10:57:14.302Z,4.50
2019-04-13T10:59:59.778Z,6.00
2019-04-13T11:02:45.658Z,7.50
2019-04-13T11:05:32.072Z,8.80
2019-04-13T11:08:20.350Z,10.00
2019-04-13T11:11:07.145Z,10.50
2019-04-13T11:13:53.501Z,10.30
2019-04-13T11:16:39.164Z,10.00
2019-04-13T11:19:25.178Z,9.10
2019-04-13T11:22:11.054Z,8.30
2019-04-13T11:24:57.130Z,7.60
2019-04-13T11:27:42.900Z,7.00
2019-04-13T11:30:33.761Z,6.60
2019-04-13T11:33:20.517Z,6.30
2019-04-13T11:36:07.548Z,6.30
2019-04-13T11:38:51.742Z,6.20
2019-04-13T11:41:45.601Z,6.20
2019-04-13T11:44:48.971Z,6.10
2019-04-13T11:47:44.267Z,6.00
2019-04-13T11:50:35.443Z,5.80
2019-04-13T11:53:20.752Z,5.80
2019-04-13T11:56:05.904Z,5.70
2019-04-13T11:58:50.914Z,5.60
2019-04-13T12:01:47.074Z,5.50
2019-04-13T12:05:00.047Z,5.30
2019-04-13T12:07:54.358Z,5.20
2019-04-13T12:10:58.111Z,5.30
2019-04-13T12:13:48.443Z,5.30
2019-04-13T12:16:41.080Z,4.90
2019-04-13T12:19:33.578Z,5.00
2019-04-13T12:22:24.714Z,4.90
2019-04-13T12:25:09.878Z,4.70
2019-04-13T12:27:55.253Z,4.60
2019-04-13T12:30:42.823Z,4.70
2019-04-13T12:33:29.433Z,5.00
2019-04-13T12:36:14.623Z,5.40
2019-04-13T12:39:00.111Z,5.70
2019-04-13T12:42:05.965Z,6.10
2019-04-13T12:44:52.035Z,6.30
2019-04-13T12:47:42.195Z,6.30
2019-04-13T12:50:24.975Z,6.10
2019-04-13T12:53:09.991Z,6.00
2019-04-13T12:55:56.271Z,5.30
2019-04-13T12:58:41.848Z,5.00
2019-04-13T13:01:56.185Z,4.80
2019-04-13T13:05:00.286Z,4.90
2019-04-13T13:07:45.658Z,5.10
2019-04-13T13:10:31.297Z,5.40
2019-04-13T13:13:16.502Z,5.70
2019-04-13T13:16:01.874Z,5.90
2019-04-13T13:18:47.067Z,5.80
2019-04-13T13:21:32.311Z,5.20
2019-04-13T13:24:19.984Z,4.70
2019-04-13T13:27:06.634Z,4.40
2019-04-13T13:29:52.094Z,4.40
2019-04-13T13:32:37.149Z,4.30
2019-04-13T13:35:22.422Z,4.30
2019-04-13T13:38:07.598Z,4.50
2019-04-13T13:40:52.993Z,4.70
2019-04-13T13:43:38.099Z,4.90
2019-04-13T13:46:22.902Z,5.10
2019-04-13T13:49:09.657Z,5.30
2019-04-13T13:51:56.145Z,5.70
2019-04-13T13:54:41.879Z,5.80
2019-04-13T13:57:26.890Z,5.90
2019-04-13T14:00:14.571Z,6.20
2019-04-13T14:02:59.774Z,6.70
2019-04-13T14:05:44.696Z,6.80
2019-04-13T14:08:29.859Z,6.50
2019-04-13T14:11:14.902Z,5.80
2019-04-13T14:14:01.045Z,5.20
2019-04-13T14:16:47.974Z,4.80
2019-04-13T14:19:34.646Z,4.50
2019-04-13T14:22:20.223Z,4.40
2019-04-13T14:25:06.534Z,4.30
2019-04-13T14:27:52.813Z,4.30
2019-04-13T14:30:38.391Z,4.40
2019-04-13T14:33:24.371Z,4.30
2019-04-13T14:36:09.636Z,4.30
2019-04-13T14:38:56.694Z,4.30
2019-04-13T14:41:43.482Z,4.00
2019-04-13T14:44:29.536Z,3.70
2019-04-13T14:47:15.394Z,3.40
2019-04-13T14:50:01.098Z,3.00
2019-04-13T14:52:46.604Z,2.70
2019-04-13T14:55:33.066Z,2.60
2019-04-13T14:58:18.469Z,2.60
2019-04-13T15:01:04.218Z,2.60
2019-04-13T15:03:50.613Z,2.60
2019-04-13T15:06:36.906Z,2.80
2019-04-13T15:09:22.991Z,2.90
2019-04-13T15:12:09.397Z,3.00
2019-04-13T15:14:56.581Z,3.00
2019-04-13T15:17:55.830Z,3.20
2019-04-13T15:20:45.984Z,3.10
2019-04-13T15:23:34.601Z,3.20
2019-04-13T15:26:17.221Z,3.20
2019-04-13T15:29:04.269Z,3.30
2019-04-13T15:31:51.083Z,3.30
2019-04-13T15:34:37.998Z,3.30
2019-04-13T15:37:25.541Z,3.10
2019-04-13T15:40:15.158Z,2.90
2019-04-13T15:43:04.453Z,2.70
2019-04-13T15:45:49.024Z,2.60
2019-04-13T15:48:32.814Z,2.70
2019-04-13T15:51:18.207Z,2.90
2019-04-13T15:54:05.335Z,3.10
2019-04-13T15:56:50.890Z,3.30
2019-04-13T15:59:37.200Z,3.50
2019-04-13T16:02:22.915Z,3.90
2019-04-13T16:05:09.327Z,4.30
2019-04-13T16:07:55.262Z,4.70
2019-04-13T16:10:45.942Z,5.00
2019-04-13T16:13:31.097Z,5.40
2019-04-13T16:16:17.606Z,5.70
2019-04-13T16:19:03.296Z,6.00
2019-04-13T16:21:49.619Z,6.60
2019-04-13T16:24:35.122Z,7.20
2019-04-13T16:27:21.402Z,6.90
2019-04-13T16:30:25.799Z,6.50
2019-04-13T16:33:35.378Z,6.10
2019-04-13T16:36:31.226Z,5.70
2019-04-13T16:39:20.876Z,5.50
2019-04-13T16:42:10.635Z,5.10
2019-04-13T16:45:13.394Z,4.70
2019-04-13T16:48:12.413Z,4.50
2019-04-13T16:51:16.183Z,4.30
2019-04-13T16:54:12.627Z,4.40
2019-04-13T16:57:04.600Z,4.40
2019-04-13T17:00:28.834Z,4.40
2019-04-13T17:03:43.770Z,4.40
2019-04-13T17:06:30.180Z,4.50
2019-04-13T17:09:16.353Z,4.40
2019-04-13T17:12:17.109Z,4.30
2019-04-13T17:14:49.852Z,4.20
2019-04-13T17:17:36.311Z,4.00
2019-04-13T17:20:35.609Z,3.90
2019-04-13T17:23:37.853Z,3.70
2019-04-13T17:26:42.950Z,3.60
2019-04-13T17:29:39.190Z,3.40
2019-04-13T17:32:47.698Z,3.20
2019-04-13T17:35:33.260Z,3.10
2019-04-13T17:38:18.620Z,3.00
2019-04-13T17:41:23.082Z,2.90
2019-04-13T17:44:22.338Z,2.80
2019-04-13T17:47:35.113Z,2.70
2019-04-13T17:50:43.119Z,2.70
2019-04-13T17:53:38.653Z,2.60
2019-04-13T17:56:24.594Z,2.60
2019-04-13T17:59:28.486Z,2.50
2019-04-13T18:02:40.445Z,2.50
2019-04-13T18:05:36.086Z,2.50
2019-04-13T18:08:48.869Z,2.50
2019-04-13T18:11:59.242Z,2.40
2019-04-13T18:14:54.394Z,2.40
2019-04-13T18:17:53.709Z,2.40
2019-04-13T18:20:40.538Z,2.30
2019-04-13T18:23:25.647Z,2.30
2019-04-13T18:26:10.970Z,2.30
2019-04-13T18:28:56.602Z,2.30
2019-04-13T18:31:42.495Z,2.20
2019-04-13T18:34:28.806Z,2.20
2019-04-13T18:37:15.714Z,2.20
2019-04-13T18:40:01.419Z,2.20
2019-04-13T18:43:00.832Z,2.30
2019-04-13T18:45:33.355Z,2.40
2019-04-13T18:48:18.653Z,2.40
2019-04-13T18:51:04.320Z,2.40
2019-04-13T18:53:50.741Z,2.40
2019-04-13T18:56:37.483Z,2.40
2019-04-13T18:59:23.711Z,2.40
2019-04-13T19:02:08.951Z,2.30
2019-04-13T19:04:54.374Z,2.30
2019-04-13T19:07:39.282Z,2.20
2019-04-13T19:10:24.987Z,2.20
2019-04-13T19:13:09.959Z,2.10
2019-04-13T19:15:55.187Z,2.00
2019-04-13T19:18:41.265Z,1.90
2019-04-13T19:21:26.166Z,1.80
2019-04-13T19:24:11.490Z,1.80
2019-04-13T19:26:56.826Z,1.70
2019-04-13T19:29:42.349Z,1.60
2019-04-13T19:32:27.907Z,1.60
2019-04-13T19:35:13.597Z,1.50
2019-04-13T19:37:59.169Z,1.50
2019-04-13T19:40:44.334Z,1.50
2019-04-13T19:43:29.355Z,1.40
2019-04-13T19:46:14.041Z,1.30
2019-04-13T19:48:59.081Z,1.30
2019-04-13T19:52:09.744Z,1.30
2019-04-13T19:54:55.372Z,1.30
2019-04-13T19:57:40.327Z,1.30
2019-04-13T20:00:32.430Z,1.30
2019-04-13T20:03:17.729Z,1.30
2019-04-13T20:06:05.545Z,1.30
2019-04-13T20:08:49.642Z,1.30
2019-04-13T20:11:35.449Z,1.20
2019-04-13T20:14:22.771Z,1.20
2019-04-13T20:17:08.400Z,1.20
2019-04-13T20:19:53.394Z,1.10
2019-04-13T20:22:38.886Z,1.10
2019-04-13T20:25:24.581Z,1.00
2019-04-13T20:28:09.826Z,1.00
2019-04-13T20:30:57.730Z,0.90
2019-04-13T20:33:42.398Z,0.90
2019-04-13T20:36:28.925Z,0.90
2019-04-13T20:39:14.796Z,0.80
2019-04-13T20:42:05.771Z,0.70
2019-04-13T20:44:49.630Z,0.60
2019-04-13T20:47:35.112Z,0.60
2019-04-13T20:50:20.662Z,0.50
2019-04-13T20:53:06.354Z,0.50
2019-04-13T20:55:52.486Z,0.30
2019-04-13T20:58:37.970Z,0.30
2019-04-13T21:01:23.798Z,0.20
2019-04-13T21:04:10.822Z,0.10
2019-04-13T21:06:56.428Z,0.10
2019-04-13T21:09:42.530Z,0.00
2019-04-13T21:12:28.176Z,0.00
2019-04-13T21:15:16.821Z,0.00
2019-04-13T21:18:03.559Z,0.00
2019-04-13T21:20:49.304Z,-0.10
2019-04-13T21:23:36.346Z,0.00
2019-04-13T21:26:23.727Z,0.00
2019-04-13T21:29:10.959Z,-0.10
2019-04-13T21:31:56.824Z,-0.10
2019-04-13T21:34:44.276Z,-0.20
2019-04-13T21:37:31.334Z,-0.20
2019-04-13T21:40:16.828Z,-0.30
2019-04-13T21:43:02.335Z,-0.30
2019-04-13T21:45:49.274Z,-0.20
2019-04-13T21:48:35.805Z,-0.30
2019-04-13T21:51:40.086Z,-0.30
2019-04-13T21:54:30.091Z,-0.30
2019-04-13T21:57:15.574Z,-0.30
2019-04-13T22:00:01.101Z,-0.30
2019-04-13T22:02:46.510Z,-0.40
2019-04-13T22:05:31.637Z,-0.40
2019-04-13T22:08:18.678Z,-0.50
2019-04-13T22:11:03.808Z,-0.50
2019-04-13T22:13:49.415Z,-0.50
2019-04-13T22:16:34.705Z,-0.50
2019-04-13T22:19:19.982Z,-0.50
2019-04-13T22:22:06.018Z,-0.60
2019-04-13T22:24:50.906Z,-0.60
2019-04-13T22:27:49.506Z,-0.60
2019-04-13T22:30:26.221Z,-0.70
2019-04-13T22:33:11.178Z,-0.70
2019-04-13T22:36:04.979Z,-0.80
2019-04-13T22:38:50.286Z,-0.80
2019-04-13T22:41:35.586Z,-0.80
2019-04-13T22:44:20.862Z,-0.70
2019-04-13T22:47:06.140Z,-0.70
2019-04-13T22:50:00.318Z,-0.70
2019-04-13T22:53:04.198Z,-0.70
2019-04-13T22:56:11.394Z,-0.60
2019-04-13T22:58:56.486Z,-0.50
2019-04-13T23:01:45.971Z,-0.40
2019-04-13T23:04:31.953Z,-0.30
2019-04-13T23:07:20.506Z,-0.10
2019-04-13T23:10:04.966Z,0.00
2019-04-13T23:12:50.761Z,0.20
2019-04-13T23:15:38.740Z,0.30
2019-04-13T23:18:23.366Z,0.40
2019-04-13T23:21:09.311Z,0.50
2019-04-13T23:23:55.068Z,0.60
2019-04-13T23:26:40.901Z,0.70
2019-04-13T23:29:26.810Z,0.80
2019-04-13T23:32:13.672Z,0.80
2019-04-13T23:35:01.194Z,0.80
2019-04-13T23:37:47.416Z,0.90
2019-04-13T23:40:33.258Z,0.90
2019-04-13T23:43:18.995Z,0.90
2019-04-13T23:46:04.694Z,0.90
2019-04-13T23:48:50.618Z,0.90
2019-04-13T23:51:36.047Z,0.90
2019-04-13T23:54:21.739Z,0.90
2019-04-13T23:57:21.150Z,0.90
